createdAt,value
2022-08-09T00:00:00.512Z,17.00
2022-08-09T00:02:28.416Z,17.00
2022-08-09T00:05:03.711Z,17.00
2022-08-09T00:07:44.807Z,17.00
2022-08-09T00:10:18.137Z,17.00
2022-08-09T00:12:51.684Z,17.00
2022-08-09T00:15:35.603Z,16.90
2022-08-09T00:18:11.471Z,16.90
2022-08-09T00:20:42.611Z,16.90
2022-08-09T00:23:57.235Z,16.90
2022-08-09T00:26:10.894Z,16.80
2022-08-09T00:28:39.451Z,16.80
2022-08-09T00:31:58.438Z,16.80
2022-08-09T00:33:56.736Z,16.80
2022-08-09T00:36:27.177Z,16.70
2022-08-09T00:38:57.166Z,16.80
2022-08-09T00:44:14.338Z,16.70
2022-08-09T00:44:24.771Z,16.70
2022-08-09T00:47:01.786Z,16.70
2022-08-09T00:49:36.837Z,16.70
2022-08-09T00:52:06.239Z,16.70
2022-08-09T00:54:45.288Z,16.70
2022-08-09T00:57:12.560Z,16.70
2022-08-09T00:59:46.355Z,16.70
2022-08-09T01:02:18.187Z,16.60
2022-08-09T01:05:13.923Z,16.60
2022-08-09T01:08:02.504Z,16.60
2022-08-09T01:10:47.405Z,16.60
2022-08-09T01:13:41.758Z,16.60
2022-08-09T01:16:25.080Z,16.60
2022-08-09T01:19:02.492Z,16.60
2022-08-09T01:21:50.906Z,16.60
2022-08-09T01:24:50.516Z,16.60
2022-08-09T01:27:21.714Z,16.50
2022-08-09T01:29:56.568Z,16.50
2022-08-09T01:32:45.604Z,16.50
2022-08-09T01:35:37.200Z,16.40
2022-08-09T01:38:14.970Z,16.40
2022-08-09T01:40:53.134Z,16.40
2022-08-09T01:43:42.035Z,16.40
2022-08-09T01:46:29.560Z,16.40
2022-08-09T01:49:14.513Z,16.30
2022-08-09T01:51:53.585Z,16.30
2022-08-09T01:54:22.948Z,16.30
2022-08-09T01:56:52.084Z,16.30
2022-08-09T01:59:21.325Z,16.30
2022-08-09T02:01:58.271Z,16.30
2022-08-09T02:04:27.203Z,16.30
2022-08-09T02:07:18.546Z,16.30
2022-08-09T02:10:11.025Z,16.20
2022-08-09T02:12:39.342Z,16.20
2022-08-09T02:15:10.234Z,16.20
2022-08-09T02:18:09.876Z,16.10
2022-08-09T02:20:41.445Z,16.10
2022-08-09T02:23:39.828Z,16.10
2022-08-09T02:26:24.931Z,16.10
2022-08-09T02:29:00.350Z,16.10
2022-08-09T02:31:38.513Z,16.10
2022-08-09T02:34:38.575Z,16.00
2022-08-09T02:37:04.912Z,16.00
2022-08-09T02:39:41.793Z,16.00
2022-08-09T02:42:16.729Z,16.00
2022-08-09T02:44:50.325Z,16.00
2022-08-09T02:47:20.148Z,16.00
2022-08-09T02:50:01.346Z,16.00
2022-08-09T02:52:48.490Z,16.00
2022-08-09T02:55:20.959Z,16.00
2022-08-09T02:58:00.128Z,15.90
2022-08-09T03:00:57.598Z,15.90
2022-08-09T03:03:37.130Z,15.90
2022-08-09T03:06:15.660Z,15.90
2022-08-09T03:08:46.050Z,15.90
2022-08-09T03:11:30.132Z,15.90
2022-08-09T03:14:05.307Z,15.90
2022-08-09T03:16:34.649Z,15.80
2022-08-09T03:19:05.818Z,15.80
2022-08-09T03:21:42.082Z,15.80
2022-08-09T03:24:31.178Z,15.80
2022-08-09T03:27:05.379Z,15.80
2022-08-09T03:29:57.082Z,15.80
2022-08-09T03:32:23.819Z,15.70
2022-08-09T03:34:54.149Z,15.70
2022-08-09T03:37:56.706Z,15.70
2022-08-09T03:40:08.794Z,15.60
2022-08-09T03:42:42.876Z,15.60
2022-08-09T03:45:10.971Z,15.60
2022-08-09T03:47:41.835Z,15.60
2022-08-09T03:50:11.076Z,15.60
2022-08-09T03:52:41.805Z,15.60
2022-08-09T03:55:10.945Z,15.60
2022-08-09T03:57:44.795Z,15.60
2022-08-09T04:00:30.050Z,15.50
2022-08-09T04:02:57.674Z,15.50
2022-08-09T04:05:27.956Z,15.50
2022-08-09T04:07:56.864Z,15.60
2022-08-09T04:10:28.932Z,15.50
2022-08-09T04:13:01.265Z,15.50
2022-08-09T04:16:18.613Z,15.50
2022-08-09T04:18:21.239Z,15.50
2022-08-09T04:20:49.471Z,15.50
2022-08-09T04:23:17.909Z,15.50
2022-08-09T04:25:52.401Z,15.50
2022-08-09T04:28:36.110Z,15.50
2022-08-09T04:31:09.018Z,15.40
2022-08-09T04:33:51.800Z,15.40
2022-08-09T04:36:24.996Z,15.40
2022-08-09T04:38:56.400Z,15.50
2022-08-09T04:41:33.212Z,15.50
2022-08-09T04:44:07.298Z,15.50
2022-08-09T04:46:59.350Z,15.50
2022-08-09T04:49:52.397Z,15.50
2022-08-09T04:52:26.216Z,15.50
2022-08-09T04:54:59.518Z,15.50
2022-08-09T04:57:27.181Z,15.60
2022-08-09T05:00:14.259Z,15.60
2022-08-09T05:02:48.520Z,15.60
2022-08-09T05:05:32.161Z,15.70
2022-08-09T05:08:07.595Z,15.70
2022-08-09T05:10:36.853Z,15.80
2022-08-09T05:13:04.102Z,15.90
2022-08-09T05:15:39.098Z,16.00
2022-08-09T05:18:55.367Z,16.10
2022-08-09T05:21:02.297Z,16.20
2022-08-09T05:23:53.573Z,16.40
2022-08-09T05:26:37.065Z,16.50
2022-08-09T05:29:17.454Z,16.60
2022-08-09T05:31:51.942Z,16.70
2022-08-09T05:34:31.267Z,16.80
2022-08-09T05:37:06.797Z,17.00
2022-08-09T05:39:43.818Z,17.20
2022-08-09T05:42:26.275Z,17.30
2022-08-09T05:44:56.048Z,17.40
2022-08-09T05:47:25.254Z,17.60
2022-08-09T05:50:25.686Z,17.80
2022-08-09T05:52:44.377Z,17.90
2022-08-09T05:55:21.348Z,18.10
2022-08-09T05:57:56.980Z,18.20
2022-08-09T06:00:32.943Z,18.40
2022-08-09T06:03:04.095Z,18.50
2022-08-09T06:05:57.037Z,18.60
2022-08-09T06:08:25.193Z,18.80
2022-08-09T06:10:55.047Z,18.90
2022-08-09T06:13:22.483Z,19.10
2022-08-09T06:15:51.639Z,19.30
2022-08-09T06:18:24.008Z,19.40
2022-08-09T06:20:57.956Z,19.60
2022-08-09T06:23:57.329Z,19.70
2022-08-09T06:26:21.170Z,19.80
2022-08-09T06:28:59.513Z,19.90
2022-08-09T06:31:31.321Z,20.00
2022-08-09T06:34:06.874Z,20.20
2022-08-09T06:36:34.434Z,20.30
2022-08-09T06:39:02.506Z,20.50
2022-08-09T06:42:07.714Z,20.50
2022-08-09T06:44:24.692Z,20.70
2022-08-09T06:46:55.139Z,20.70
2022-08-09T06:49:44.636Z,20.90
2022-08-09T06:52:10.530Z,21.10
2022-08-09T06:54:41.343Z,21.10
2022-08-09T06:57:08.641Z,21.20
2022-08-09T07:01:24.000Z,21.40
2022-08-09T07:03:53.224Z,21.40
2022-08-09T07:06:20.804Z,21.50
2022-08-09T07:08:49.724Z,21.50
2022-08-09T07:11:25.315Z,21.70
2022-08-09T07:14:04.101Z,21.80
2022-08-09T07:16:43.207Z,21.90
2022-08-09T07:19:23.167Z,22.00
2022-08-09T07:21:57.527Z,22.20
2022-08-09T07:24:32.358Z,22.30
2022-08-09T07:27:11.080Z,22.50
2022-08-09T07:29:58.428Z,22.60
2022-08-09T07:32:33.390Z,22.80
2022-08-09T07:35:10.685Z,22.90
2022-08-09T07:37:45.605Z,23.10
2022-08-09T07:40:20.375Z,23.30
2022-08-09T07:42:54.189Z,23.40
2022-08-09T07:45:38.239Z,23.70
2022-08-09T07:48:08.029Z,23.80
2022-08-09T07:51:03.018Z,23.80
2022-08-09T07:54:06.702Z,24.00
2022-08-09T07:56:27.779Z,24.00
2022-08-09T07:58:59.533Z,24.20
2022-08-09T08:01:34.126Z,24.30
2022-08-09T08:04:03.032Z,24.50
2022-08-09T08:06:32.024Z,24.60
2022-08-09T08:09:04.931Z,24.70
2022-08-09T08:12:11.436Z,24.80
2022-08-09T08:14:21.093Z,24.90
2022-08-09T08:17:07.394Z,25.00
2022-08-09T08:19:36.470Z,25.20
2022-08-09T08:22:04.554Z,25.40
2022-08-09T08:24:34.225Z,25.50
2022-08-09T08:27:16.959Z,25.60
2022-08-09T08:29:48.573Z,25.70
2022-08-09T08:32:18.913Z,25.70
2022-08-09T08:34:51.992Z,25.90
2022-08-09T08:37:22.076Z,25.80
2022-08-09T08:39:52.146Z,25.90
2022-08-09T08:42:19.218Z,26.00
2022-08-09T08:45:00.398Z,26.10
2022-08-09T08:47:42.753Z,26.20
2022-08-09T08:50:15.684Z,26.20
2022-08-09T08:52:57.614Z,26.30
2022-08-09T08:55:26.134Z,26.40
2022-08-09T08:57:58.459Z,26.60
2022-08-09T09:00:30.388Z,26.60
2022-08-09T09:03:11.386Z,26.70
2022-08-09T09:05:59.987Z,26.70
2022-08-09T09:08:32.078Z,26.80
2022-08-09T09:11:06.099Z,26.90
2022-08-09T09:13:47.482Z,27.00
2022-08-09T09:16:29.715Z,27.20
2022-08-09T09:19:22.594Z,27.20
2022-08-09T09:22:04.108Z,27.20
2022-08-09T09:24:38.198Z,27.30
2022-08-09T09:27:08.577Z,27.40
2022-08-09T09:30:10.678Z,27.40
2022-08-09T09:32:32.420Z,27.50
2022-08-09T09:35:09.281Z,27.50
2022-08-09T09:37:40.398Z,27.50
2022-08-09T09:40:09.189Z,27.60
2022-08-09T09:42:36.306Z,27.70
2022-08-09T09:45:08.353Z,27.70
2022-08-09T09:47:40.784Z,27.70
2022-08-09T09:50:23.060Z,27.60
2022-08-09T09:52:53.974Z,27.70
2022-08-09T09:55:31.318Z,27.60
2022-08-09T09:58:17.106Z,27.50
2022-08-09T10:00:54.186Z,27.80
2022-08-09T10:03:58.103Z,27.70
2022-08-09T10:06:32.060Z,27.60
2022-08-09T10:09:11.704Z,27.70
2022-08-09T10:12:11.741Z,27.70
2022-08-09T10:14:40.256Z,27.80
2022-08-09T10:17:40.389Z,27.80
2022-08-09T10:20:10.918Z,27.50
2022-08-09T10:22:42.201Z,27.60
2022-08-09T10:25:11.994Z,27.70
2022-08-09T10:27:57.329Z,27.90
2022-08-09T10:34:07.986Z,27.80
2022-08-09T10:36:02.668Z,27.90
2022-08-09T10:38:54.390Z,28.00
2022-08-09T10:41:20.479Z,28.10
2022-08-09T10:43:59.427Z,28.20
2022-08-09T10:46:54.187Z,28.20
2022-08-09T10:49:51.834Z,28.20
2022-08-09T10:52:53.446Z,28.30
2022-08-09T10:55:22.910Z,28.30
2022-08-09T10:57:51.745Z,28.30
2022-08-09T11:00:50.804Z,28.30
2022-08-09T11:03:27.797Z,28.30
2022-08-09T11:06:22.774Z,28.30
2022-08-09T11:08:53.107Z,28.30
2022-08-09T11:11:21.733Z,28.30
2022-08-09T11:14:28.541Z,28.30
2022-08-09T11:16:57.254Z,28.40
2022-08-09T11:20:20.011Z,28.50
2022-08-09T11:22:44.592Z,28.60
2022-08-09T11:25:15.705Z,28.60
2022-08-09T11:28:02.644Z,28.60
2022-08-09T11:30:37.645Z,28.60
2022-08-09T11:33:08.666Z,28.70
2022-08-09T11:35:49.529Z,28.70
2022-08-09T11:38:32.075Z,28.70
2022-08-09T11:41:38.526Z,28.70
2022-08-09T11:44:08.308Z,28.80
2022-08-09T11:46:52.932Z,28.80
2022-08-09T11:50:55.557Z,28.60
2022-08-09T11:53:44.007Z,28.70
2022-08-09T11:56:02.627Z,28.60
2022-08-09T11:58:33.196Z,28.70
2022-08-09T12:01:15.633Z,28.70
2022-08-09T12:04:00.860Z,28.70
2022-08-09T12:06:32.417Z,28.70
2022-08-09T12:09:17.595Z,28.80
2022-08-09T12:12:02.725Z,28.80
2022-08-09T12:14:48.848Z,28.80
2022-08-09T12:17:28.152Z,28.70
2022-08-09T12:20:19.800Z,28.70
2022-08-09T12:22:50.363Z,28.60
2022-08-09T12:25:32.085Z,28.70
2022-08-09T12:29:14.323Z,28.60
2022-08-09T12:31:11.081Z,28.60
2022-08-09T12:33:59.143Z,28.70
2022-08-09T12:36:33.522Z,28.60
2022-08-09T12:39:01.737Z,28.60
2022-08-09T12:41:36.317Z,28.40
2022-08-09T12:44:07.985Z,28.30
2022-08-09T12:46:39.582Z,28.20
2022-08-09T12:49:08.782Z,28.20
2022-08-09T12:52:00.169Z,28.10
2022-08-09T12:54:25.215Z,28.00
2022-08-09T12:56:53.955Z,27.80
2022-08-09T12:59:23.886Z,27.60
2022-08-09T13:01:59.606Z,27.50
2022-08-09T13:04:35.863Z,27.50
2022-08-09T13:07:19.582Z,27.50
2022-08-09T13:09:55.759Z,27.50
2022-08-09T13:12:29.253Z,27.50
2022-08-09T13:15:07.626Z,27.50
2022-08-09T13:18:02.605Z,27.40
2022-08-09T13:20:37.711Z,27.50
2022-08-09T13:24:44.333Z,27.40
2022-08-09T13:26:50.053Z,27.30
2022-08-09T13:29:20.686Z,27.20
2022-08-09T13:32:17.247Z,27.20
2022-08-09T13:34:48.594Z,27.10
2022-08-09T13:37:50.411Z,27.10
2022-08-09T13:41:45.747Z,27.10
2022-08-09T13:42:52.167Z,26.80
2022-08-09T13:45:19.948Z,26.70
2022-08-09T13:47:49.669Z,26.70
2022-08-09T13:50:31.082Z,26.80
2022-08-09T13:52:58.961Z,26.70
2022-08-09T13:55:29.127Z,26.60
2022-08-09T13:57:58.387Z,26.60
2022-08-09T14:00:28.913Z,26.70
2022-08-09T14:03:04.498Z,26.50
2022-08-09T14:06:00.033Z,26.50
2022-08-09T14:08:30.274Z,26.50
2022-08-09T14:10:57.992Z,26.10
2022-08-09T14:14:15.946Z,26.00
2022-08-09T14:16:28.241Z,25.90
2022-08-09T14:18:57.356Z,25.90
2022-08-09T14:21:29.072Z,25.90
2022-08-09T14:23:57.623Z,25.90
2022-08-09T14:26:32.609Z,25.70
2022-08-09T14:29:25.424Z,25.70
2022-08-09T14:31:56.702Z,25.60
2022-08-09T14:34:31.761Z,25.60
2022-08-09T14:37:06.633Z,25.60
2022-08-09T14:39:45.620Z,25.50
2022-08-09T14:42:28.797Z,25.50
2022-08-09T14:46:51.421Z,25.40
2022-08-09T14:47:58.734Z,25.20
2022-08-09T14:50:32.302Z,25.10
2022-08-09T14:53:06.370Z,25.10
2022-08-09T14:55:38.143Z,25.10
2022-08-09T14:58:09.843Z,25.10
2022-08-09T15:00:37.330Z,25.00
2022-08-09T15:03:10.606Z,25.00
2022-08-09T15:05:38.781Z,25.00
2022-08-09T15:08:06.835Z,25.00
2022-08-09T15:10:38.243Z,24.90
2022-08-09T15:13:06.004Z,24.90
2022-08-09T15:15:39.450Z,24.90
2022-08-09T15:18:08.363Z,24.90
2022-08-09T15:22:01.007Z,24.90
2022-08-09T15:24:01.045Z,24.80
2022-08-09T15:26:19.334Z,24.80
2022-08-09T15:29:04.276Z,24.70
2022-08-09T15:31:41.648Z,24.60
2022-08-09T15:34:32.372Z,24.50
2022-08-09T15:36:58.179Z,24.50
2022-08-09T15:39:25.610Z,24.50
2022-08-09T15:42:02.516Z,24.40
2022-08-09T15:44:32.705Z,24.40
2022-08-09T15:47:00.899Z,24.40
2022-08-09T15:49:28.439Z,24.40
2022-08-09T15:52:03.907Z,24.30
2022-08-09T15:54:49.468Z,24.30
2022-08-09T15:57:34.351Z,24.30
2022-08-09T16:00:14.590Z,24.30
2022-08-09T16:02:48.215Z,24.30
2022-08-09T16:05:22.649Z,24.30
2022-08-09T16:07:50.632Z,24.20
2022-08-09T16:10:55.510Z,24.20
2022-08-09T16:13:18.659Z,24.20
2022-08-09T16:16:09.883Z,24.20
2022-08-09T16:18:35.381Z,24.10
2022-08-09T16:21:02.326Z,24.10
2022-08-09T16:23:29.285Z,24.00
2022-08-09T16:26:01.035Z,24.00
2022-08-09T16:28:29.750Z,24.00
2022-08-09T16:30:59.374Z,24.00
2022-08-09T16:33:27.509Z,24.00
2022-08-09T16:36:00.898Z,24.00
2022-08-09T16:38:31.545Z,23.90
2022-08-09T16:40:59.220Z,23.90
2022-08-09T16:43:31.245Z,23.80
2022-08-09T16:45:58.086Z,23.80
2022-08-09T16:48:43.399Z,23.80
2022-08-09T16:51:14.752Z,23.70
2022-08-09T16:56:33.517Z,23.70
2022-08-09T16:59:06.679Z,23.70
2022-08-09T17:01:42.291Z,23.70
2022-08-09T17:04:25.405Z,23.70
2022-08-09T17:08:46.677Z,23.70
2022-08-09T17:09:44.930Z,23.60
2022-08-09T17:12:13.977Z,23.60
2022-08-09T17:14:47.795Z,23.60
2022-08-09T17:17:27.077Z,23.60
2022-08-09T17:20:28.857Z,23.60
2022-08-09T17:22:50.367Z,23.50
2022-08-09T17:25:19.749Z,23.50
2022-08-09T17:27:49.527Z,23.50
2022-08-09T17:30:22.323Z,23.50
2022-08-09T17:32:53.335Z,23.40
2022-08-09T17:35:20.238Z,23.40
2022-08-09T17:38:14.337Z,23.40
2022-08-09T17:40:35.415Z,23.40
2022-08-09T17:43:32.308Z,23.30
2022-08-09T17:46:03.767Z,23.30
2022-08-09T17:48:34.417Z,23.20
2022-08-09T17:51:08.952Z,23.20
2022-08-09T17:53:48.112Z,23.20
2022-08-09T17:56:22.034Z,23.20
2022-08-09T17:58:59.555Z,23.10
2022-08-09T18:02:03.219Z,23.10
2022-08-09T18:04:14.158Z,23.10
2022-08-09T18:06:43.140Z,23.00
2022-08-09T18:09:22.634Z,23.00
2022-08-09T18:12:05.517Z,22.90
2022-08-09T18:14:42.203Z,22.90
2022-08-09T18:17:26.878Z,22.90
2022-08-09T18:20:54.200Z,22.80
2022-08-09T18:22:54.666Z,22.80
2022-08-09T18:25:21.597Z,22.70
2022-08-09T18:28:21.634Z,22.60
2022-08-09T18:30:56.260Z,22.60
2022-08-09T18:33:23.796Z,22.50
2022-08-09T18:35:59.312Z,22.50
2022-08-09T18:38:27.602Z,22.50
2022-08-09T18:40:55.606Z,22.40
2022-08-09T18:43:23.332Z,22.40
2022-08-09T18:46:47.706Z,22.30
2022-08-09T18:48:37.528Z,22.30
2022-08-09T18:51:04.698Z,22.30
2022-08-09T18:53:56.419Z,22.20
2022-08-09T18:56:27.040Z,22.10
2022-08-09T18:58:56.644Z,22.10
2022-08-09T19:01:25.635Z,22.00
2022-08-09T19:04:06.028Z,21.90
2022-08-09T19:06:38.586Z,21.90
2022-08-09T19:09:07.149Z,21.80
2022-08-09T19:11:37.495Z,21.80
2022-08-09T19:14:06.721Z,21.70
2022-08-09T19:16:38.204Z,21.70
2022-08-09T19:19:23.757Z,21.60
2022-08-09T19:22:04.765Z,21.60
2022-08-09T19:25:11.758Z,21.60
2022-08-09T19:27:28.563Z,21.50
2022-08-09T19:30:22.987Z,21.50
2022-08-09T19:32:44.158Z,21.40
2022-08-09T19:35:11.117Z,21.40
2022-08-09T19:37:52.761Z,21.40
2022-08-09T19:40:23.990Z,21.30
2022-08-09T19:43:02.829Z,21.30
2022-08-09T19:45:40.120Z,21.30
2022-08-09T19:48:07.405Z,21.20
2022-08-09T19:50:50.452Z,21.20
2022-08-09T19:53:21.081Z,21.20
2022-08-09T19:56:02.432Z,21.10
2022-08-09T19:58:32.957Z,21.10
2022-08-09T20:00:59.975Z,21.10
2022-08-09T20:04:17.882Z,21.00
2022-08-09T20:06:23.453Z,21.00
2022-08-09T20:08:57.496Z,20.90
2022-08-09T20:11:26.870Z,20.90
2022-08-09T20:13:54.900Z,20.90
2022-08-09T20:16:37.681Z,20.90
2022-08-09T20:19:49.081Z,20.80
2022-08-09T20:22:00.123Z,20.80
2022-08-09T20:24:29.434Z,20.80
2022-08-09T20:27:01.508Z,20.80
2022-08-09T20:29:37.667Z,20.80
2022-08-09T20:32:30.483Z,20.80
2022-08-09T20:34:57.367Z,20.70
2022-08-09T20:37:24.771Z,20.70
2022-08-09T20:40:15.591Z,20.70
2022-08-09T20:42:38.671Z,20.70
2022-08-09T20:45:57.293Z,20.60
2022-08-09T20:47:55.085Z,20.60
2022-08-09T20:50:48.765Z,20.50
2022-08-09T20:53:34.954Z,20.50
2022-08-09T20:56:00.927Z,20.50
2022-08-09T20:58:32.797Z,20.50
2022-08-09T21:01:32.614Z,20.40
2022-08-09T21:04:07.862Z,20.40
2022-08-09T21:06:44.103Z,20.40
2022-08-09T21:09:14.161Z,20.40
2022-08-09T21:14:30.751Z,20.30
2022-08-09T21:17:01.951Z,20.30
2022-08-09T21:20:19.619Z,20.20
2022-08-09T21:22:46.863Z,20.20
2022-08-09T21:25:37.951Z,20.10
2022-08-09T21:28:05.980Z,20.10
2022-08-09T21:30:36.925Z,20.10
2022-08-09T21:33:07.448Z,20.10
2022-08-09T21:35:40.546Z,20.00
2022-08-09T21:38:20.977Z,20.00
2022-08-09T21:40:58.954Z,19.90
2022-08-09T21:43:56.582Z,19.90
2022-08-09T21:46:13.753Z,19.80
2022-08-09T21:48:42.710Z,19.80
2022-08-09T21:51:24.043Z,19.80
2022-08-09T21:53:54.755Z,19.80
2022-08-09T21:56:43.199Z,19.70
2022-08-09T21:59:09.628Z,19.70
2022-08-09T22:01:59.403Z,19.60
2022-08-09T22:04:55.102Z,19.60
2022-08-09T22:07:12.192Z,19.60
2022-08-09T22:09:43.484Z,19.50
2022-08-09T22:12:19.085Z,19.50
2022-08-09T22:14:51.816Z,19.40
2022-08-09T22:17:18.818Z,19.40
2022-08-09T22:19:58.050Z,19.40
2022-08-09T22:22:27.380Z,19.40
2022-08-09T22:26:06.845Z,19.40
2022-08-09T22:27:41.119Z,19.30
2022-08-09T22:30:09.927Z,19.20
2022-08-09T22:32:37.819Z,19.20
2022-08-09T22:36:02.148Z,19.20
2022-08-09T22:38:06.797Z,19.20
2022-08-09T22:40:35.074Z,19.10
2022-08-09T22:43:16.174Z,19.10
2022-08-09T22:48:12.383Z,19.00
2022-08-09T22:48:36.949Z,19.00
2022-08-09T22:51:10.837Z,18.90
2022-08-09T22:54:02.121Z,18.90
2022-08-09T22:56:33.991Z,18.90
2022-08-09T22:59:57.165Z,18.90
2022-08-09T23:01:52.731Z,18.80
2022-08-09T23:04:19.861Z,18.80
2022-08-09T23:07:11.180Z,18.80
2022-08-09T23:09:39.012Z,18.70
2022-08-09T23:12:06.528Z,18.70
2022-08-09T23:14:41.947Z,18.60
2022-08-09T23:17:10.578Z,18.60
2022-08-09T23:20:06.337Z,18.60
2022-08-09T23:22:24.827Z,18.60
2022-08-09T23:24:54.434Z,18.50
2022-08-09T23:27:21.360Z,18.50
2022-08-09T23:29:48.240Z,18.40
2022-08-09T23:32:15.161Z,18.40
2022-08-09T23:34:42.159Z,18.40
2022-08-09T23:37:09.228Z,18.40
2022-08-09T23:39:36.256Z,18.30
2022-08-09T23:42:03.157Z,18.30
2022-08-09T23:44:30.092Z,18.30
2022-08-09T23:46:57.451Z,18.20
2022-08-09T23:49:25.650Z,18.20
2022-08-09T23:51:54.140Z,18.10
2022-08-09T23:54:26.578Z,18.10
2022-08-09T23:56:56.377Z,18.10
2022-08-09T23:59:45.941Z,18.10
